CFG2CH LGIR-EDDM
Flight info
| Callsign | CFG2CH |
|---|---|
| Flight time | 2h 39m |
| Altitude | 38000 |
| Route | EPALO M749 DIRMI UL613 YNN UL604 DIMIS DCT RETRA DCT NIVES DCT GORPA DCT RASTA DCT REDBU Q112 NAPSA NAPSA1B |
| Aircraft | A20N/M-SBDE3FGHIJ1J4J7LORVWXYZ/SB2D1G1 |
Departure
| Time | 2026-05-04 08:48 |
|---|---|
| Airport | Heraklion International Nikos Kazantzakis Airport (LGIR) |
Arrival
| Time | 2026-05-04 11:28 |
|---|---|
| Airport | Munich Airport (EDDM) |
| Time | Latitude | Longitude | Altitude | Speed | Heading |
|---|---|---|---|---|---|
| 2026-05-04 08:48 | 35.50992 | 25.08946 | 9696 ft | 254 kts | 342° |
| 2026-05-04 08:48 | 35.52693 | 25.08292 | 10556 ft | 260 kts | 342° |
| 2026-05-04 08:48 | 35.54497 | 25.07599 | 10888 ft | 284 kts | 342° |
| 2026-05-04 08:49 | 35.56458 | 25.06845 | 11175 ft | 305 kts | 342° |
| 2026-05-04 08:50 | 35.69229 | 25.01937 | 15706 ft | 328 kts | 341° |
| 2026-05-04 08:50 | 35.71416 | 25.01091 | 16474 ft | 330 kts | 339° |
| 2026-05-04 08:51 | 35.73569 | 25.00097 | 17228 ft | 331 kts | 337° |
| 2026-05-04 08:51 | 35.75720 | 24.99081 | 17993 ft | 332 kts | 337° |
| 2026-05-04 08:51 | 35.77883 | 24.98065 | 18690 ft | 333 kts | 337° |
| 2026-05-04 08:51 | 35.80052 | 24.97046 | 19341 ft | 334 kts | 337° |
| 2026-05-04 08:52 | 35.82234 | 24.96022 | 19999 ft | 335 kts | 336° |
| 2026-05-04 08:52 | 35.84422 | 24.94992 | 20635 ft | 337 kts | 336° |
| 2026-05-04 08:52 | 35.86590 | 24.93972 | 21255 ft | 338 kts | 336° |
| 2026-05-04 08:52 | 35.88794 | 24.92933 | 21890 ft | 340 kts | 336° |
| 2026-05-04 08:53 | 35.91011 | 24.91888 | 22515 ft | 341 kts | 335° |
| 2026-05-04 08:54 | 36.06587 | 24.83829 | 26061 ft | 352 kts | 324° |
| 2026-05-04 08:55 | 36.08576 | 24.82057 | 26487 ft | 353 kts | 320° |
| 2026-05-04 08:55 | 36.10498 | 24.80134 | 26909 ft | 355 kts | 320° |
| 2026-05-04 08:55 | 36.12434 | 24.78219 | 27318 ft | 358 kts | 320° |
| 2026-05-04 08:55 | 36.14389 | 24.76288 | 27720 ft | 360 kts | 320° |
| 2026-05-04 08:57 | 36.28341 | 24.62424 | 30196 ft | 376 kts | 320° |
| 2026-05-04 09:01 | 36.57408 | 24.33300 | 34469 ft | 385 kts | 320° |
| 2026-05-04 09:01 | 36.59491 | 24.31202 | 34693 ft | 386 kts | 320° |
| 2026-05-04 09:01 | 36.61579 | 24.29098 | 34907 ft | 386 kts | 320° |
| 2026-05-04 09:01 | 36.63669 | 24.26991 | 35114 ft | 387 kts | 320° |
| 2026-05-04 09:02 | 36.65761 | 24.24879 | 35328 ft | 387 kts | 320° |
| 2026-05-04 09:02 | 36.67854 | 24.22766 | 35527 ft | 388 kts | 320° |
| 2026-05-04 09:02 | 36.69953 | 24.20645 | 35714 ft | 388 kts | 320° |
| 2026-05-04 09:02 | 36.72051 | 24.18523 | 35932 ft | 389 kts | 320° |
| 2026-05-04 09:03 | 36.74154 | 24.16395 | 36106 ft | 389 kts | 320° |
| 2026-05-04 09:03 | 36.76259 | 24.14263 | 36293 ft | 390 kts | 320° |
| 2026-05-04 09:03 | 36.78362 | 24.12131 | 36472 ft | 390 kts | 320° |
| 2026-05-04 09:03 | 36.80471 | 24.09992 | 36647 ft | 391 kts | 320° |
| 2026-05-04 09:04 | 36.82555 | 24.07876 | 36834 ft | 391 kts | 320° |
| 2026-05-04 09:04 | 36.86825 | 24.03535 | 37100 ft | 393 kts | 320° |
| 2026-05-04 09:04 | 36.88922 | 24.01401 | 37257 ft | 394 kts | 320° |
| 2026-05-04 09:05 | 36.91046 | 23.99240 | 37407 ft | 394 kts | 320° |
| 2026-05-04 09:05 | 36.93171 | 23.97076 | 37562 ft | 395 kts | 320° |
| 2026-05-04 09:05 | 36.95305 | 23.94902 | 37709 ft | 395 kts | 320° |
| 2026-05-04 09:05 | 36.97433 | 23.92734 | 37851 ft | 395 kts | 320° |
| 2026-05-04 09:06 | 36.99567 | 23.90559 | 37991 ft | 396 kts | 320° |
| 2026-05-04 09:07 | 37.14522 | 23.75262 | 38186 ft | 399 kts | 320° |
| 2026-05-04 09:08 | 37.16664 | 23.73065 | 38188 ft | 396 kts | 321° |
| 2026-05-04 09:08 | 37.20904 | 23.68710 | 38184 ft | 394 kts | 320° |
| 2026-05-04 09:09 | 37.25153 | 23.64339 | 38189 ft | 395 kts | 320° |
| 2026-05-04 09:09 | 37.29369 | 23.59996 | 38189 ft | 395 kts | 320° |
| 2026-05-04 09:10 | 37.33615 | 23.55615 | 38188 ft | 395 kts | 320° |
| 2026-05-04 09:10 | 37.37855 | 23.51234 | 38190 ft | 395 kts | 320° |
| 2026-05-04 09:11 | 37.42103 | 23.46837 | 38178 ft | 395 kts | 321° |
| 2026-05-04 09:11 | 37.46342 | 23.42443 | 38159 ft | 395 kts | 321° |
| 2026-05-04 09:12 | 37.50578 | 23.38046 | 38196 ft | 395 kts | 321° |
| 2026-05-04 09:14 | 37.67438 | 23.20479 | 38201 ft | 393 kts | 321° |
| 2026-05-04 09:14 | 37.71661 | 23.16064 | 38188 ft | 400 kts | 320° |
| 2026-05-04 09:15 | 37.75922 | 23.11599 | 38181 ft | 396 kts | 320° |
| 2026-05-04 09:15 | 37.80145 | 23.07167 | 38182 ft | 391 kts | 321° |
| 2026-05-04 09:17 | 37.98102 | 22.87701 | 38151 ft | 394 kts | 318° |
| 2026-05-04 09:18 | 38.02157 | 22.83004 | 38168 ft | 396 kts | 318° |
| 2026-05-04 09:18 | 38.06236 | 22.78262 | 38183 ft | 398 kts | 318° |
| 2026-05-04 09:19 | 38.10286 | 22.73538 | 38179 ft | 393 kts | 319° |
| 2026-05-04 09:19 | 38.14317 | 22.68839 | 38169 ft | 394 kts | 319° |
| 2026-05-04 09:20 | 38.18367 | 22.64137 | 38171 ft | 394 kts | 319° |
| 2026-05-04 09:20 | 38.22380 | 22.59468 | 38169 ft | 394 kts | 319° |
| 2026-05-04 09:21 | 38.26428 | 22.54749 | 38170 ft | 397 kts | 319° |
| 2026-05-04 09:21 | 38.30507 | 22.49984 | 38171 ft | 397 kts | 319° |
| 2026-05-04 09:22 | 38.34570 | 22.45230 | 38142 ft | 396 kts | 319° |
| 2026-05-04 09:22 | 38.38588 | 22.40520 | 38168 ft | 391 kts | 319° |
| 2026-05-04 09:23 | 38.42606 | 22.35807 | 38169 ft | 393 kts | 319° |
| 2026-05-04 09:23 | 38.46623 | 22.31085 | 38163 ft | 392 kts | 319° |
| 2026-05-04 09:25 | 38.62620 | 22.12198 | 38134 ft | 390 kts | 319° |
| 2026-05-04 09:26 | 38.66587 | 22.07494 | 38155 ft | 388 kts | 319° |
| 2026-05-04 09:26 | 38.70538 | 22.02803 | 38144 ft | 387 kts | 319° |
| 2026-05-04 09:27 | 38.74497 | 21.98093 | 38169 ft | 387 kts | 319° |
| 2026-05-04 09:27 | 38.78469 | 21.93361 | 38167 ft | 391 kts | 319° |
| 2026-05-04 09:28 | 38.82443 | 21.88618 | 38162 ft | 393 kts | 319° |
| 2026-05-04 09:28 | 38.86437 | 21.83843 | 38169 ft | 392 kts | 319° |
| 2026-05-04 09:29 | 38.90424 | 21.79070 | 38145 ft | 392 kts | 319° |
| 2026-05-04 09:29 | 38.94391 | 21.74312 | 38157 ft | 389 kts | 319° |
| 2026-05-04 09:30 | 38.98337 | 21.69572 | 38149 ft | 388 kts | 319° |
| 2026-05-04 09:30 | 39.02282 | 21.64828 | 38167 ft | 390 kts | 318° |
| 2026-05-04 09:31 | 39.06226 | 21.60076 | 38166 ft | 392 kts | 318° |
| 2026-05-04 09:31 | 39.10202 | 21.55279 | 38168 ft | 393 kts | 319° |
| 2026-05-04 09:32 | 39.14175 | 21.50472 | 38165 ft | 391 kts | 319° |
| 2026-05-04 09:34 | 39.30011 | 21.31250 | 38162 ft | 390 kts | 319° |
| 2026-05-04 09:34 | 39.33960 | 21.26438 | 38157 ft | 390 kts | 319° |
| 2026-05-04 09:35 | 39.37910 | 21.21616 | 38142 ft | 390 kts | 319° |
| 2026-05-04 09:35 | 39.41855 | 21.16791 | 38148 ft | 391 kts | 319° |
| 2026-05-04 09:37 | 39.57587 | 20.97475 | 38174 ft | 389 kts | 318° |
| 2026-05-04 09:38 | 39.61525 | 20.92621 | 38181 ft | 391 kts | 318° |
| 2026-05-04 09:38 | 39.65462 | 20.87758 | 38184 ft | 391 kts | 318° |
| 2026-05-04 09:39 | 39.69617 | 20.83229 | 38184 ft | 390 kts | 326° |
| 2026-05-04 09:39 | 39.74256 | 20.79605 | 38183 ft | 389 kts | 333° |
| 2026-05-04 09:40 | 39.79165 | 20.76614 | 38191 ft | 389 kts | 334° |
| 2026-05-04 09:40 | 39.84078 | 20.73615 | 38183 ft | 390 kts | 334° |
| 2026-05-04 09:42 | 40.03779 | 20.61603 | 38149 ft | 391 kts | 334° |
| 2026-05-04 09:43 | 40.08722 | 20.58595 | 38149 ft | 391 kts | 335° |
| 2026-05-04 09:43 | 40.13725 | 20.55777 | 38140 ft | 391 kts | 336° |
| 2026-05-04 09:44 | 40.18740 | 20.52980 | 38129 ft | 392 kts | 336° |
| 2026-05-04 09:46 | 40.38760 | 20.41624 | 38147 ft | 393 kts | 336° |
| 2026-05-04 09:46 | 40.43775 | 20.38765 | 38152 ft | 393 kts | 336° |
| 2026-05-04 09:47 | 40.48797 | 20.35898 | 38150 ft | 393 kts | 336° |
| 2026-05-04 09:49 | 40.68894 | 20.24375 | 38158 ft | 395 kts | 336° |
| 2026-05-04 09:51 | 40.86485 | 20.14228 | 38159 ft | 394 kts | 336° |
| 2026-05-04 09:51 | 40.91508 | 20.11320 | 38160 ft | 394 kts | 336° |
| 2026-05-04 09:52 | 40.96536 | 20.08403 | 38161 ft | 394 kts | 336° |
| 2026-05-04 09:52 | 41.01563 | 20.05482 | 38166 ft | 394 kts | 336° |
| 2026-05-04 09:53 | 41.06589 | 20.02558 | 38160 ft | 395 kts | 336° |
| 2026-05-04 09:53 | 41.11619 | 19.99626 | 38161 ft | 395 kts | 336° |
| 2026-05-04 09:54 | 41.16618 | 19.96707 | 38169 ft | 394 kts | 336° |
| 2026-05-04 09:54 | 41.21639 | 19.93771 | 38163 ft | 394 kts | 336° |
| 2026-05-04 09:55 | 41.26668 | 19.90824 | 38165 ft | 395 kts | 336° |
| 2026-05-04 09:55 | 41.31692 | 19.87875 | 38156 ft | 395 kts | 336° |
| 2026-05-04 09:56 | 41.36729 | 19.84915 | 38160 ft | 395 kts | 336° |
| 2026-05-04 09:56 | 41.41756 | 19.81955 | 38160 ft | 395 kts | 336° |
| 2026-05-04 09:57 | 41.46782 | 19.78990 | 38164 ft | 394 kts | 336° |
| 2026-05-04 09:57 | 41.51804 | 19.76023 | 38166 ft | 395 kts | 336° |
| 2026-05-04 09:58 | 41.56831 | 19.73048 | 38165 ft | 395 kts | 336° |
| 2026-05-04 09:58 | 41.61862 | 19.70065 | 38164 ft | 396 kts | 336° |
| 2026-05-04 10:00 | 41.81184 | 19.58562 | 38172 ft | 397 kts | 336° |
| 2026-05-04 10:04 | 42.16659 | 19.37244 | 38179 ft | 398 kts | 335° |
| 2026-05-04 10:04 | 42.21668 | 19.33963 | 38181 ft | 401 kts | 330° |
| 2026-05-04 10:05 | 42.26295 | 19.29765 | 38184 ft | 401 kts | 323° |
| 2026-05-04 10:05 | 42.30664 | 19.25062 | 38187 ft | 401 kts | 323° |
| 2026-05-04 10:06 | 42.35051 | 19.20374 | 38186 ft | 402 kts | 323° |
| 2026-05-04 10:06 | 42.39434 | 19.15665 | 38189 ft | 402 kts | 323° |
| 2026-05-04 10:08 | 42.54745 | 18.99106 | 38167 ft | 403 kts | 322° |
| 2026-05-04 10:08 | 42.59090 | 18.94387 | 38169 ft | 403 kts | 322° |
| 2026-05-04 10:09 | 42.63470 | 18.89619 | 38173 ft | 403 kts | 322° |
| 2026-05-04 10:09 | 42.67850 | 18.84844 | 38165 ft | 404 kts | 322° |
| 2026-05-04 10:10 | 42.72244 | 18.80044 | 38169 ft | 405 kts | 322° |
| 2026-05-04 10:10 | 42.76633 | 18.75241 | 38167 ft | 405 kts | 322° |
| 2026-05-04 10:11 | 42.81022 | 18.70427 | 38170 ft | 405 kts | 322° |
| 2026-05-04 10:11 | 42.85408 | 18.65609 | 38170 ft | 405 kts | 322° |
| 2026-05-04 10:12 | 42.89772 | 18.60806 | 38163 ft | 406 kts | 322° |
| 2026-05-04 10:12 | 42.94161 | 18.55965 | 38165 ft | 406 kts | 322° |
| 2026-05-04 10:13 | 42.98553 | 18.51113 | 38169 ft | 406 kts | 322° |
| 2026-05-04 10:13 | 43.02951 | 18.46245 | 38168 ft | 407 kts | 322° |
| 2026-05-04 10:14 | 43.07349 | 18.41368 | 38157 ft | 406 kts | 321° |
| 2026-05-04 10:16 | 43.24891 | 18.21822 | 38160 ft | 407 kts | 321° |
| 2026-05-04 10:16 | 43.29277 | 18.16911 | 38161 ft | 407 kts | 321° |
| 2026-05-04 10:17 | 43.33665 | 18.11989 | 38159 ft | 407 kts | 321° |
| 2026-05-04 10:19 | 43.51156 | 17.92273 | 38155 ft | 407 kts | 321° |
| 2026-05-04 10:19 | 43.55533 | 17.87315 | 38151 ft | 407 kts | 321° |
| 2026-05-04 10:20 | 43.59907 | 17.82352 | 38143 ft | 407 kts | 321° |
| 2026-05-04 10:20 | 43.64289 | 17.77369 | 38146 ft | 408 kts | 321° |
| 2026-05-04 10:21 | 43.68671 | 17.72378 | 38146 ft | 408 kts | 321° |
| 2026-05-04 10:21 | 43.73047 | 17.67383 | 38149 ft | 408 kts | 321° |
| 2026-05-04 10:22 | 43.79619 | 17.59862 | 38149 ft | 408 kts | 321° |
| 2026-05-04 10:23 | 43.83994 | 17.54842 | 38140 ft | 409 kts | 321° |
| 2026-05-04 10:25 | 44.01472 | 17.34694 | 38133 ft | 408 kts | 320° |
| 2026-05-04 10:25 | 44.05833 | 17.29641 | 38133 ft | 407 kts | 320° |
| 2026-05-04 10:26 | 44.10168 | 17.24610 | 38120 ft | 409 kts | 320° |
| 2026-05-04 10:26 | 44.14542 | 17.19524 | 38132 ft | 410 kts | 320° |
| 2026-05-04 10:27 | 44.18915 | 17.14427 | 38132 ft | 410 kts | 320° |
| 2026-05-04 10:27 | 44.23303 | 17.09302 | 38136 ft | 411 kts | 320° |
| 2026-05-04 10:28 | 44.27696 | 17.04161 | 38138 ft | 412 kts | 320° |
| 2026-05-04 10:28 | 44.32086 | 16.99015 | 38128 ft | 412 kts | 320° |
| 2026-05-04 10:29 | 44.36462 | 16.93874 | 38127 ft | 411 kts | 320° |
| 2026-05-04 10:29 | 44.40840 | 16.88720 | 38128 ft | 411 kts | 320° |
| 2026-05-04 10:30 | 44.45189 | 16.83589 | 38123 ft | 411 kts | 320° |
| 2026-05-04 10:30 | 44.49561 | 16.78421 | 38125 ft | 411 kts | 320° |
| 2026-05-04 10:31 | 44.53934 | 16.73243 | 38126 ft | 411 kts | 319° |
| 2026-05-04 10:32 | 44.69228 | 16.55045 | 38115 ft | 412 kts | 319° |
| 2026-05-04 10:33 | 44.73603 | 16.49815 | 38107 ft | 413 kts | 319° |
| 2026-05-04 10:33 | 44.77983 | 16.44569 | 38118 ft | 413 kts | 319° |
| 2026-05-04 10:34 | 44.82367 | 16.39305 | 38109 ft | 414 kts | 319° |
| 2026-05-04 10:34 | 44.86748 | 16.34035 | 38106 ft | 414 kts | 319° |
| 2026-05-04 10:35 | 44.91113 | 16.28774 | 38107 ft | 415 kts | 319° |
| 2026-05-04 10:35 | 44.95523 | 16.23447 | 38110 ft | 415 kts | 319° |
| 2026-05-04 10:36 | 44.99882 | 16.18173 | 38107 ft | 415 kts | 319° |
| 2026-05-04 10:36 | 45.04267 | 16.12852 | 38102 ft | 416 kts | 319° |
| 2026-05-04 10:37 | 45.08664 | 16.07508 | 38106 ft | 416 kts | 319° |
| 2026-05-04 10:37 | 45.13053 | 16.02164 | 38105 ft | 416 kts | 319° |
| 2026-05-04 10:39 | 45.28908 | 15.84217 | 38099 ft | 418 kts | 324° |
| 2026-05-04 10:40 | 45.33666 | 15.79480 | 38098 ft | 417 kts | 324° |
| 2026-05-04 10:40 | 45.38423 | 15.74714 | 38099 ft | 418 kts | 324° |
| 2026-05-04 10:41 | 45.43146 | 15.69968 | 38092 ft | 418 kts | 324° |
| 2026-05-04 10:41 | 45.47902 | 15.65179 | 38085 ft | 419 kts | 323° |
| 2026-05-04 10:42 | 45.51857 | 15.61187 | 38082 ft | 419 kts | 323° |
| 2026-05-04 10:42 | 45.56617 | 15.56375 | 38086 ft | 420 kts | 323° |
| 2026-05-04 10:43 | 45.61389 | 15.51540 | 38088 ft | 421 kts | 323° |
| 2026-05-04 10:45 | 45.80467 | 15.31974 | 38107 ft | 422 kts | 321° |
| 2026-05-04 10:45 | 45.85110 | 15.26790 | 38096 ft | 422 kts | 321° |
| 2026-05-04 10:46 | 45.89736 | 15.21649 | 38091 ft | 421 kts | 321° |
| 2026-05-04 10:46 | 45.94350 | 15.16541 | 38092 ft | 421 kts | 321° |
| 2026-05-04 10:47 | 45.99043 | 15.11341 | 38088 ft | 424 kts | 321° |
| 2026-05-04 10:47 | 46.03681 | 15.06189 | 38083 ft | 423 kts | 321° |
| 2026-05-04 10:49 | 46.22332 | 14.85360 | 38085 ft | 421 kts | 320° |
| 2026-05-04 10:50 | 46.26930 | 14.80196 | 38091 ft | 419 kts | 320° |
| 2026-05-04 10:52 | 46.45427 | 14.59304 | 38083 ft | 423 kts | 320° |
| 2026-05-04 10:52 | 46.50099 | 14.53998 | 38075 ft | 427 kts | 320° |
| 2026-05-04 10:54 | 46.68790 | 14.32654 | 38079 ft | 427 kts | 320° |
| 2026-05-04 10:56 | 46.87492 | 14.11101 | 38067 ft | 429 kts | 319° |
| 2026-05-04 10:57 | 46.92310 | 14.05515 | 38071 ft | 429 kts | 319° |
| 2026-05-04 10:57 | 46.96821 | 14.00275 | 38068 ft | 430 kts | 319° |
| 2026-05-04 10:58 | 47.01511 | 13.94814 | 38067 ft | 430 kts | 319° |
| 2026-05-04 10:58 | 47.06197 | 13.89345 | 38066 ft | 430 kts | 319° |
| 2026-05-04 10:59 | 47.10889 | 13.83857 | 38070 ft | 431 kts | 319° |
| 2026-05-04 10:59 | 47.15583 | 13.78354 | 38063 ft | 431 kts | 319° |
| 2026-05-04 11:00 | 47.20271 | 13.72844 | 38064 ft | 431 kts | 319° |
| 2026-05-04 11:02 | 47.39002 | 13.50702 | 38032 ft | 432 kts | 319° |
| 2026-05-04 11:05 | 47.74217 | 13.08141 | 30771 ft | 452 kts | 318° |
| 2026-05-04 11:06 | 47.76627 | 13.05188 | 29249 ft | 456 kts | 319° |
| 2026-05-04 11:06 | 47.79080 | 13.02180 | 27939 ft | 456 kts | 319° |
| 2026-05-04 11:06 | 47.81511 | 12.99196 | 26870 ft | 450 kts | 319° |
| 2026-05-04 11:06 | 47.83913 | 12.96246 | 25820 ft | 445 kts | 319° |
| 2026-05-04 11:08 | 47.98244 | 12.75158 | 20235 ft | 378 kts | 298° |
| 2026-05-04 11:10 | 48.07256 | 12.52481 | 14832 ft | 349 kts | 298° |
| 2026-05-04 11:12 | 48.14694 | 12.30849 | 9649 ft | 323 kts | 274° |
| 2026-05-04 11:12 | 48.14896 | 12.27583 | 9376 ft | 306 kts | 274° |
| 2026-05-04 11:12 | 48.15110 | 12.24504 | 9093 ft | 291 kts | 274° |
| 2026-05-04 11:12 | 48.15321 | 12.21526 | 8679 ft | 282 kts | 274° |
| 2026-05-04 11:13 | 48.15529 | 12.18612 | 8603 ft | 284 kts | 274° |
| 2026-05-04 11:13 | 48.15735 | 12.15667 | 8539 ft | 283 kts | 274° |
| 2026-05-04 11:13 | 48.15939 | 12.12724 | 8492 ft | 285 kts | 274° |
| 2026-05-04 11:13 | 48.16142 | 12.09769 | 8386 ft | 284 kts | 274° |
| 2026-05-04 11:14 | 48.16344 | 12.06830 | 8274 ft | 283 kts | 274° |
| 2026-05-04 11:14 | 48.16542 | 12.03915 | 8153 ft | 281 kts | 274° |
| 2026-05-04 11:14 | 48.16742 | 12.00991 | 8034 ft | 281 kts | 274° |
| 2026-05-04 11:16 | 48.18090 | 11.80782 | 7211 ft | 278 kts | 272° |
| 2026-05-04 11:16 | 48.17904 | 11.77935 | 7151 ft | 274 kts | 255° |
| 2026-05-04 11:16 | 48.17421 | 11.75170 | 7102 ft | 274 kts | 253° |
| 2026-05-04 11:17 | 48.16970 | 11.72384 | 7011 ft | 274 kts | 256° |
| 2026-05-04 11:17 | 48.16624 | 11.69576 | 6906 ft | 275 kts | 259° |
| 2026-05-04 11:19 | 48.15151 | 11.49633 | 6091 ft | 276 kts | 262° |
| 2026-05-04 11:19 | 48.14953 | 11.46763 | 5982 ft | 277 kts | 263° |
| 2026-05-04 11:19 | 48.14756 | 11.43901 | 5868 ft | 277 kts | 262° |
| 2026-05-04 11:19 | 48.14605 | 11.41017 | 5714 ft | 277 kts | 271° |
| 2026-05-04 11:20 | 48.15066 | 11.38240 | 5572 ft | 278 kts | 297° |
| 2026-05-04 11:20 | 48.16294 | 11.36044 | 5321 ft | 275 kts | 325° |
| 2026-05-04 11:20 | 48.18031 | 11.34935 | 5091 ft | 271 kts | 353° |
| 2026-05-04 11:20 | 48.19854 | 11.35160 | 5007 ft | 268 kts | 21° |
| 2026-05-04 11:22 | 48.29675 | 11.45694 | 4991 ft | 232 kts | 37° |
| 2026-05-04 11:22 | 48.30522 | 11.46627 | 4986 ft | 223 kts | 41° |
| 2026-05-04 11:23 | 48.31494 | 11.48309 | 4930 ft | 209 kts | 62° |
| 2026-05-04 11:23 | 48.32032 | 11.50368 | 4750 ft | 214 kts | 76° |
| 2026-05-04 11:24 | 48.33100 | 11.62596 | 3166 ft | 159 kts | 82° |
| 2026-05-04 11:25 | 48.33217 | 11.64135 | 2964 ft | 139 kts | 83° |
| 2026-05-04 11:25 | 48.33324 | 11.65504 | 2787 ft | 125 kts | 82° |
| 2026-05-04 11:25 | 48.33426 | 11.66836 | 2616 ft | 129 kts | 83° |
| 2026-05-04 11:26 | 48.33625 | 11.69416 | 2281 ft | 123 kts | 81° |
| 2026-05-04 11:27 | 48.34257 | 11.77584 | 1467 ft | 50 kts | 84° |
| 2026-05-04 11:28 | 48.34298 | 11.78077 | 1468 ft | 41 kts | 84° |
| 2026-05-04 11:28 | 48.34367 | 11.78324 | 1471 ft | 24 kts | 55° |
| 2026-05-04 11:28 | 48.34462 | 11.78519 | 1458 ft | 23 kts | 54° |
| 2026-05-04 11:28 | 48.34549 | 11.78699 | 1466 ft | 19 kts | 52° |
| 2026-05-04 11:29 | 48.34667 | 11.78728 | 1461 ft | 17 kts | 347° |
| 2026-05-04 11:29 | 48.34718 | 11.78613 | 1462 ft | 17 kts | 260° |
| 2026-05-04 11:29 | 48.34698 | 11.78425 | 1459 ft | 19 kts | 265° |
| 2026-05-04 11:29 | 48.34685 | 11.78212 | 1464 ft | 20 kts | 263° |
| 2026-05-04 11:31 | 48.35084 | 11.77826 | 1460 ft | 11 kts | 353° |
| 2026-05-04 11:33 | 48.34998 | 11.78220 | 1466 ft | 10 kts | 173° |
| 2026-05-04 11:33 | 48.34943 | 11.78237 | 1463 ft | 7 kts | 144° |
| 2026-05-04 11:33 | 48.34945 | 11.78302 | 1462 ft | 7 kts | 82° |
| 2026-05-04 11:34 | 48.34949 | 11.78377 | 1466 ft | 6 kts | 85° |
| 2026-05-04 11:34 | 48.34950 | 11.78380 | 1466 ft | 0 kts | 85° |